PWSweather.com
Personal Weather Stations
Station Observations
KOMOKA
Komoka Village, Komoka, ON N0L IRO

Komoka VillageKomoka, ON N0L IRO

Lat: 42.9542444, Lon: -81.4348861

Elevation: 805

Station Type: Davis Vantage Pro 2

www.komokaweather.com

High Low Average
Temperature 52.0°F11.1°C 34.5°F1.4°C 45.2°F7.3°C
Dew Point 32.5°F0.3°C 25.7°F-3.5°C 29.3°F-1.5°C
Winds 7.0 mph 11.3 kmh Calm Calm 2.0 mph N3.2 kmh N
Wind Gusts 20.0 mph32.2 kmh -- 7.0 mph11.3 kmh
Humidity 70% 37% 54%
Pressure 30.06 in1017.9 mb 29.80 in1009.1 mb -
Precipitation 0.00 in0.0 mm - -
Hour Temp Dew Point Humidity Winds Wind Gusts Pressure Precip Precip Rate Daily Precip Total
12:02 AM 45.0°F7.2°C 32.2°F0.1°C 61% Calm Calm 3.0 mph4.8 kmh 29.80 in1009.1 mb 0.00 in0.0 mm 0.00 in0.0 mm 0.00 in0.0 mm
12:09 AM 45.0°F7.2°C 32.2°F0.1°C 61% Calm Calm 3.0 mph4.8 kmh 29.80 in1009.1 mb 0.00 in0.0 mm 0.00 in0.0 mm 0.00 in0.0 mm
12:16 AM 45.0°F7.2°C 32.4°F0.2°C 61% Calm Calm 4.0 mph6.4 kmh 29.81 in1009.5 mb 0.00 in0.0 mm 0.00 in0.0 mm 0.00 in0.0 mm
12:23 AM 45.0°F7.2°C 32.4°F0.2°C 61% Calm Calm 3.0 mph4.8 kmh 29.81 in1009.5 mb 0.00 in0.0 mm 0.00 in0.0 mm 0.00 in0.0 mm
12:30 AM 45.0°F7.2°C 32.0°F0.0°C 60% 1.0 mph N1.6 kmh N 3.0 mph4.8 kmh 29.81 in1009.5 mb 0.00 in0.0 mm 0.00 in0.0 mm 0.00 in0.0 mm
12:37 AM 45.0°F7.2°C 32.4°F0.2°C 61% 1.0 mph N1.6 kmh N 3.0 mph4.8 kmh 29.81 in1009.5 mb 0.00 in0.0 mm 0.00 in0.0 mm 0.00 in0.0 mm
12:44 AM 45.0°F7.2°C 32.2°F0.1°C 61% 1.0 mph N1.6 kmh N 5.0 mph8.0 kmh 29.82 in1009.8 mb 0.00 in0.0 mm 0.00 in0.0 mm 0.00 in0.0 mm
12:51 AM 44.8°F7.1°C 32.5°F0.3°C 62% 1.0 mph N1.6 kmh N 5.0 mph8.0 kmh 29.82 in1009.8 mb 0.00 in0.0 mm 0.00 in0.0 mm 0.00 in0.0 mm
12:58 AM 44.8°F7.1°C 32.0°F0.0°C 61% 1.0 mph N1.6 kmh N 4.0 mph6.4 kmh 29.82 in1009.8 mb 0.00 in0.0 mm 0.00 in0.0 mm 0.00 in0.0 mm
01:05 AM 44.8°F7.1°C 32.2°F0.1°C 61% 1.0 mph N1.6 kmh N 5.0 mph8.0 kmh 29.82 in1009.8 mb 0.00 in0.0 mm 0.00 in0.0 mm 0.00 in0.0 mm
01:12 AM 45.0°F7.2°C 31.5°F-0.3°C 59% 3.0 mph N4.8 kmh N 9.0 mph14.5 kmh 29.82 in1009.8 mb 0.00 in0.0 mm 0.00 in0.0 mm 0.00 in0.0 mm
01:19 AM 45.0°F7.2°C 31.5°F-0.3°C 59% 4.0 mph N6.4 kmh N 9.0 mph14.5 kmh 29.82 in1009.8 mb 0.00 in0.0 mm 0.00 in0.0 mm 0.00 in0.0 mm
01:26 AM 45.0°F7.2°C 31.5°F-0.3°C 59% 3.0 mph N4.8 kmh N 8.0 mph12.9 kmh 29.81 in1009.5 mb 0.00 in0.0 mm 0.00 in0.0 mm 0.00 in0.0 mm
01:33 AM 44.8°F7.1°C 30.9°F-0.6°C 58% 3.0 mph N4.8 kmh N 8.0 mph12.9 kmh 29.80 in1009.1 mb 0.00 in0.0 mm 0.00 in0.0 mm 0.00 in0.0 mm
01:40 AM 44.8°F7.1°C 30.7°F-0.7°C 58% 1.0 mph N1.6 kmh N 5.0 mph8.0 kmh 29.81 in1009.5 mb 0.00 in0.0 mm 0.00 in0.0 mm 0.00 in0.0 mm
01:47 AM 44.6°F7.0°C 30.7°F-0.7°C 58% 3.0 mph N4.8 kmh N 8.0 mph12.9 kmh 29.81 in1009.5 mb 0.00 in0.0 mm 0.00 in0.0 mm 0.00 in0.0 mm
01:54 AM 44.4°F6.9°C 31.1°F-0.5°C 59% 3.0 mph N4.8 kmh N 5.0 mph8.0 kmh 29.81 in1009.5 mb 0.00 in0.0 mm 0.00 in0.0 mm 0.00 in0.0 mm
02:01 AM 44.4°F6.9°C 30.9°F-0.6°C 59% 3.0 mph N4.8 kmh N 7.0 mph11.3 kmh 29.81 in1009.5 mb 0.00 in0.0 mm 0.00 in0.0 mm 0.00 in0.0 mm
02:08 AM 44.2°F6.8°C 30.9°F-0.6°C 59% 1.0 mph N1.6 kmh N 5.0 mph8.0 kmh 29.81 in1009.5 mb 0.00 in0.0 mm 0.00 in0.0 mm 0.00 in0.0 mm
02:15 AM 44.2°F6.8°C 30.7°F-0.7°C 59% 1.0 mph N1.6 kmh N 4.0 mph6.4 kmh 29.81 in1009.5 mb 0.00 in0.0 mm 0.00 in0.0 mm 0.00 in0.0 mm
02:22 AM 44.2°F6.8°C 31.1°F-0.5°C 60% 1.0 mph N1.6 kmh N 3.0 mph4.8 kmh 29.81 in1009.5 mb 0.00 in0.0 mm 0.00 in0.0 mm 0.00 in0.0 mm
02:29 AM 44.1°F6.7°C 31.5°F-0.3°C 61% 1.0 mph N1.6 kmh N 3.0 mph4.8 kmh 29.82 in1009.8 mb 0.00 in0.0 mm 0.00 in0.0 mm 0.00 in0.0 mm
02:36 AM 44.1°F6.7°C 31.5°F-0.3°C 61% 1.0 mph N1.6 kmh N 7.0 mph11.3 kmh 29.82 in1009.8 mb 0.00 in0.0 mm 0.00 in0.0 mm 0.00 in0.0 mm
02:43 AM 43.9°F6.6°C 31.3°F-0.4°C 61% 1.0 mph N1.6 kmh N 5.0 mph8.0 kmh 29.82 in1009.8 mb 0.00 in0.0 mm 0.00 in0.0 mm 0.00 in0.0 mm
02:50 AM 43.9°F6.6°C 31.6°F-0.2°C 62% 1.0 mph N1.6 kmh N 5.0 mph8.0 kmh 29.82 in1009.8 mb 0.00 in0.0 mm 0.00 in0.0 mm 0.00 in0.0 mm
02:57 AM 43.9°F6.6°C 31.6°F-0.2°C 62% 1.0 mph N1.6 kmh N 4.0 mph6.4 kmh 29.82 in1009.8 mb 0.00 in0.0 mm 0.00 in0.0 mm 0.00 in0.0 mm
03:04 AM 43.9°F6.6°C 31.3°F-0.4°C 61% 1.0 mph N1.6 kmh N 4.0 mph6.4 kmh 29.82 in1009.8 mb 0.00 in0.0 mm 0.00 in0.0 mm 0.00 in0.0 mm
03:11 AM 43.9°F6.6°C 31.3°F-0.4°C 61% 1.0 mph N1.6 kmh N 4.0 mph6.4 kmh 29.82 in1009.8 mb 0.00 in0.0 mm 0.00 in0.0 mm 0.00 in0.0 mm
03:18 AM 43.9°F6.6°C 31.6°F-0.2°C 62% 1.0 mph N1.6 kmh N 4.0 mph6.4 kmh 29.83 in1010.2 mb 0.00 in0.0 mm 0.00 in0.0 mm 0.00 in0.0 mm
03:25 AM 43.9°F6.6°C 31.6°F-0.2°C 62% 1.0 mph N1.6 kmh N 5.0 mph8.0 kmh 29.83 in1010.2 mb 0.00 in0.0 mm 0.00 in0.0 mm 0.00 in0.0 mm
03:32 AM 43.9°F6.6°C 31.6°F-0.2°C 62% 1.0 mph N1.6 kmh N 4.0 mph6.4 kmh 29.83 in1010.2 mb 0.00 in0.0 mm 0.00 in0.0 mm 0.00 in0.0 mm
03:39 AM 43.7°F6.5°C 31.5°F-0.3°C 62% Calm Calm 3.0 mph4.8 kmh 29.83 in1010.2 mb 0.00 in0.0 mm 0.00 in0.0 mm 0.00 in0.0 mm
03:46 AM 43.5°F6.4°C 31.5°F-0.3°C 62% 1.0 mph N1.6 kmh N 5.0 mph8.0 kmh 29.84 in1010.5 mb 0.00 in0.0 mm 0.00 in0.0 mm 0.00 in0.0 mm
03:53 AM 43.5°F6.4°C 31.3°F-0.4°C 62% 3.0 mph N4.8 kmh N 4.0 mph6.4 kmh 29.84 in1010.5 mb 0.00 in0.0 mm 0.00 in0.0 mm 0.00 in0.0 mm
04:00 AM 43.3°F6.3°C 31.3°F-0.4°C 62% 3.0 mph N4.8 kmh N 5.0 mph8.0 kmh 29.84 in1010.5 mb 0.00 in0.0 mm 0.00 in0.0 mm 0.00 in0.0 mm
04:07 AM 43.3°F6.3°C 31.3°F-0.4°C 62% 3.0 mph N4.8 kmh N 7.0 mph11.3 kmh 29.85 in1010.8 mb 0.00 in0.0 mm 0.00 in0.0 mm 0.00 in0.0 mm
04:14 AM 43.3°F6.3°C 31.3°F-0.4°C 62% 3.0 mph N4.8 kmh N 5.0 mph8.0 kmh 29.85 in1010.8 mb 0.00 in0.0 mm 0.00 in0.0 mm 0.00 in0.0 mm
04:21 AM 43.3°F6.3°C 31.5°F-0.3°C 63% 1.0 mph N1.6 kmh N 3.0 mph4.8 kmh 29.85 in1010.8 mb 0.00 in0.0 mm 0.00 in0.0 mm 0.00 in0.0 mm
04:28 AM 43.3°F6.3°C 31.1°F-0.5°C 62% 1.0 mph N1.6 kmh N 7.0 mph11.3 kmh 29.85 in1010.8 mb 0.00 in0.0 mm 0.00 in0.0 mm 0.00 in0.0 mm
04:35 AM 43.3°F6.3°C 30.9°F-0.6°C 61% 3.0 mph N4.8 kmh N 11.0 mph17.7 kmh 29.85 in1010.8 mb 0.00 in0.0 mm 0.00 in0.0 mm 0.00 in0.0 mm
04:42 AM 43.5°F6.4°C 30.9°F-0.6°C 61% 4.0 mph N6.4 kmh N 13.0 mph20.9 kmh 29.85 in1010.8 mb 0.00 in0.0 mm 0.00 in0.0 mm 0.00 in0.0 mm
04:49 AM 43.3°F6.3°C 30.4°F-0.9°C 60% 4.0 mph N6.4 kmh N 13.0 mph20.9 kmh 29.85 in1010.8 mb 0.00 in0.0 mm 0.00 in0.0 mm 0.00 in0.0 mm
04:56 AM 43.3°F6.3°C 30.0°F-1.1°C 59% 3.0 mph N4.8 kmh N 8.0 mph12.9 kmh 29.86 in1011.2 mb 0.00 in0.0 mm 0.00 in0.0 mm 0.00 in0.0 mm
05:03 AM 43.5°F6.4°C 30.2°F-1.0°C 59% 4.0 mph N6.4 kmh N 8.0 mph12.9 kmh 29.86 in1011.2 mb 0.00 in0.0 mm 0.00 in0.0 mm 0.00 in0.0 mm
05:10 AM 43.3°F6.3°C 30.0°F-1.1°C 59% 3.0 mph N4.8 kmh N 7.0 mph11.3 kmh 29.86 in1011.2 mb 0.00 in0.0 mm 0.00 in0.0 mm 0.00 in0.0 mm
05:17 AM 43.3°F6.3°C 29.8°F-1.2°C 59% 3.0 mph N4.8 kmh N 8.0 mph12.9 kmh 29.86 in1011.2 mb 0.00 in0.0 mm 0.00 in0.0 mm 0.00 in0.0 mm
05:24 AM 43.3°F6.3°C 29.8°F-1.2°C 59% 3.0 mph N4.8 kmh N 7.0 mph11.3 kmh 29.87 in1011.5 mb 0.00 in0.0 mm 0.00 in0.0 mm 0.00 in0.0 mm
05:31 AM 43.2°F6.2°C 29.8°F-1.2°C 59% 3.0 mph N4.8 kmh N 7.0 mph11.3 kmh 29.87 in1011.5 mb 0.00 in0.0 mm 0.00 in0.0 mm 0.00 in0.0 mm
05:38 AM 43.3°F6.3°C 29.8°F-1.2°C 59% 1.0 mph N1.6 kmh N 7.0 mph11.3 kmh 29.87 in1011.5 mb 0.00 in0.0 mm 0.00 in0.0 mm 0.00 in0.0 mm
05:45 AM 43.2°F6.2°C 29.8°F-1.2°C 59% 1.0 mph N1.6 kmh N 7.0 mph11.3 kmh 29.87 in1011.5 mb 0.00 in0.0 mm 0.00 in0.0 mm 0.00 in0.0 mm
05:52 AM 43.2°F6.2°C 30.2°F-1.0°C 60% 1.0 mph N1.6 kmh N 5.0 mph8.0 kmh 29.87 in1011.5 mb 0.00 in0.0 mm 0.00 in0.0 mm 0.00 in0.0 mm
05:59 AM 43.2°F6.2°C 30.2°F-1.0°C 60% 3.0 mph N4.8 kmh N 7.0 mph11.3 kmh 29.87 in1011.5 mb 0.00 in0.0 mm 0.00 in0.0 mm 0.00 in0.0 mm
06:06 AM 43.0°F6.1°C 30.4°F-0.9°C 61% 1.0 mph N1.6 kmh N 7.0 mph11.3 kmh 29.87 in1011.5 mb 0.00 in0.0 mm 0.00 in0.0 mm 0.00 in0.0 mm
06:13 AM 43.0°F6.1°C 30.4°F-0.9°C 61% 1.0 mph N1.6 kmh N 5.0 mph8.0 kmh 29.88 in1011.9 mb 0.00 in0.0 mm 0.00 in0.0 mm 0.00 in0.0 mm
06:20 AM 43.0°F6.1°C 30.4°F-0.9°C 61% 1.0 mph N1.6 kmh N 4.0 mph6.4 kmh 29.88 in1011.9 mb 0.00 in0.0 mm 0.00 in0.0 mm 0.00 in0.0 mm
06:27 AM 43.0°F6.1°C 30.4°F-0.9°C 61% 1.0 mph N1.6 kmh N 4.0 mph6.4 kmh 29.88 in1011.9 mb 0.00 in0.0 mm 0.00 in0.0 mm 0.00 in0.0 mm
06:34 AM 43.0°F6.1°C 30.4°F-0.9°C 61% 1.0 mph N1.6 kmh N 4.0 mph6.4 kmh 29.88 in1011.9 mb 0.00 in0.0 mm 0.00 in0.0 mm 0.00 in0.0 mm
06:41 AM 43.0°F6.1°C 30.4°F-0.9°C 61% 1.0 mph N1.6 kmh N 4.0 mph6.4 kmh 29.88 in1011.9 mb 0.00 in0.0 mm 0.00 in0.0 mm 0.00 in0.0 mm
06:48 AM 42.8°F6.0°C 30.2°F-1.0°C 61% 1.0 mph N1.6 kmh N 7.0 mph11.3 kmh 29.88 in1011.9 mb 0.00 in0.0 mm 0.00 in0.0 mm 0.00 in0.0 mm
06:55 AM 42.8°F6.0°C 30.2°F-1.0°C 61% 1.0 mph N1.6 kmh N 4.0 mph6.4 kmh 29.89 in1012.2 mb 0.00 in0.0 mm 0.00 in0.0 mm 0.00 in0.0 mm
07:02 AM 42.6°F5.9°C 30.6°F-0.8°C 62% 1.0 mph N1.6 kmh N 4.0 mph6.4 kmh 29.89 in1012.2 mb 0.00 in0.0 mm 0.00 in0.0 mm 0.00 in0.0 mm
07:09 AM 42.6°F5.9°C 30.6°F-0.8°C 62% 3.0 mph N4.8 kmh N 4.0 mph6.4 kmh 29.89 in1012.2 mb 0.00 in0.0 mm 0.00 in0.0 mm 0.00 in0.0 mm
07:16 AM 42.6°F5.9°C 30.6°F-0.8°C 62% 3.0 mph N4.8 kmh N 5.0 mph8.0 kmh 29.89 in1012.2 mb 0.00 in0.0 mm 0.00 in0.0 mm 0.00 in0.0 mm
07:23 AM 42.8°F6.0°C 30.7°F-0.7°C 62% 1.0 mph N1.6 kmh N 7.0 mph11.3 kmh 29.89 in1012.2 mb 0.00 in0.0 mm 0.00 in0.0 mm 0.00 in0.0 mm
07:30 AM 43.0°F6.1°C 30.4°F-0.9°C 61% 1.0 mph N1.6 kmh N 5.0 mph8.0 kmh 29.90 in1012.5 mb 0.00 in0.0 mm 0.00 in0.0 mm 0.00 in0.0 mm
07:37 AM 43.0°F6.1°C 30.4°F-0.9°C 61% 1.0 mph N1.6 kmh N 5.0 mph8.0 kmh 29.90 in1012.5 mb 0.00 in0.0 mm 0.00 in0.0 mm 0.00 in0.0 mm
07:44 AM 43.2°F6.2°C 30.2°F-1.0°C 60% 3.0 mph N4.8 kmh N 7.0 mph11.3 kmh 29.90 in1012.5 mb 0.00 in0.0 mm 0.00 in0.0 mm 0.00 in0.0 mm
07:51 AM 43.3°F6.3°C 29.8°F-1.2°C 59% 3.0 mph N4.8 kmh N 7.0 mph11.3 kmh 29.90 in1012.5 mb 0.00 in0.0 mm 0.00 in0.0 mm 0.00 in0.0 mm
07:58 AM 43.3°F6.3°C 30.0°F-1.1°C 59% 3.0 mph N4.8 kmh N 7.0 mph11.3 kmh 29.91 in1012.9 mb 0.00 in0.0 mm 0.00 in0.0 mm 0.00 in0.0 mm
08:05 AM 43.5°F6.4°C 29.7°F-1.3°C 58% 3.0 mph N4.8 kmh N 12.0 mph19.3 kmh 29.91 in1012.9 mb 0.00 in0.0 mm 0.00 in0.0 mm 0.00 in0.0 mm
08:12 AM 43.5°F6.4°C 29.7°F-1.3°C 58% 4.0 mph N6.4 kmh N 8.0 mph12.9 kmh 29.91 in1012.9 mb 0.00 in0.0 mm 0.00 in0.0 mm 0.00 in0.0 mm
08:19 AM 43.7°F6.5°C 29.8°F-1.2°C 58% 4.0 mph N6.4 kmh N 9.0 mph14.5 kmh 29.91 in1012.9 mb 0.00 in0.0 mm 0.00 in0.0 mm 0.00 in0.0 mm
08:26 AM 43.7°F6.5°C 29.5°F-1.4°C 57% 4.0 mph N6.4 kmh N 11.0 mph17.7 kmh 29.92 in1013.2 mb 0.00 in0.0 mm 0.00 in0.0 mm 0.00 in0.0 mm
08:33 AM 43.9°F6.6°C 29.7°F-1.3°C 57% 4.0 mph N6.4 kmh N 11.0 mph17.7 kmh 29.92 in1013.2 mb 0.00 in0.0 mm 0.00 in0.0 mm 0.00 in0.0 mm
08:40 AM 44.1°F6.7°C 29.8°F-1.2°C 57% 4.0 mph N6.4 kmh N 9.0 mph14.5 kmh 29.92 in1013.2 mb 0.00 in0.0 mm 0.00 in0.0 mm 0.00 in0.0 mm
08:47 AM 44.2°F6.8°C 29.8°F-1.2°C 57% 4.0 mph N6.4 kmh N 8.0 mph12.9 kmh 29.93 in1013.5 mb 0.00 in0.0 mm 0.00 in0.0 mm 0.00 in0.0 mm
08:54 AM 44.2°F6.8°C 30.0°F-1.1°C 57% 3.0 mph N4.8 kmh N 8.0 mph12.9 kmh 29.93 in1013.5 mb 0.00 in0.0 mm 0.00 in0.0 mm 0.00 in0.0 mm
09:01 AM 44.4°F6.9°C 29.3°F-1.5°C 55% 4.0 mph N6.4 kmh N 16.0 mph25.7 kmh 29.93 in1013.5 mb 0.00 in0.0 mm 0.00 in0.0 mm 0.00 in0.0 mm
09:08 AM 44.8°F7.1°C 29.5°F-1.4°C 55% 4.0 mph N6.4 kmh N 16.0 mph25.7 kmh 29.93 in1013.5 mb 0.00 in0.0 mm 0.00 in0.0 mm 0.00 in0.0 mm
09:15 AM 44.8°F7.1°C 29.7°F-1.3°C 55% 5.0 mph N8.0 kmh N 13.0 mph20.9 kmh 29.93 in1013.5 mb 0.00 in0.0 mm 0.00 in0.0 mm 0.00 in0.0 mm
09:22 AM 45.1°F7.3°C 29.5°F-1.4°C 54% 4.0 mph N6.4 kmh N 9.0 mph14.5 kmh 29.93 in1013.5 mb 0.00 in0.0 mm 0.00 in0.0 mm 0.00 in0.0 mm
09:29 AM 45.5°F7.5°C 29.8°F-1.2°C 54% 4.0 mph N6.4 kmh N 9.0 mph14.5 kmh 29.93 in1013.5 mb 0.00 in0.0 mm 0.00 in0.0 mm 0.00 in0.0 mm
09:36 AM 45.9°F7.7°C 29.7°F-1.3°C 53% 4.0 mph N6.4 kmh N 13.0 mph20.9 kmh 29.93 in1013.5 mb 0.00 in0.0 mm 0.00 in0.0 mm 0.00 in0.0 mm
09:43 AM 46.0°F7.8°C 29.8°F-1.2°C 53% 4.0 mph N6.4 kmh N 11.0 mph17.7 kmh 29.93 in1013.5 mb 0.00 in0.0 mm 0.00 in0.0 mm 0.00 in0.0 mm
09:50 AM 46.0°F7.8°C 29.8°F-1.2°C 53% 4.0 mph N6.4 kmh N 12.0 mph19.3 kmh 29.93 in1013.5 mb 0.00 in0.0 mm 0.00 in0.0 mm 0.00 in0.0 mm
09:57 AM 46.4°F8.0°C 29.7°F-1.3°C 52% 4.0 mph N6.4 kmh N 20.0 mph32.2 kmh 29.93 in1013.5 mb 0.00 in0.0 mm 0.00 in0.0 mm 0.00 in0.0 mm
10:04 AM 46.9°F8.3°C 29.7°F-1.3°C 51% 5.0 mph N8.0 kmh N 20.0 mph32.2 kmh 29.94 in1013.9 mb 0.00 in0.0 mm 0.00 in0.0 mm 0.00 in0.0 mm
10:11 AM 47.7°F8.7°C 30.0°F-1.1°C 50% 4.0 mph N6.4 kmh N 13.0 mph20.9 kmh 29.94 in1013.9 mb 0.00 in0.0 mm 0.00 in0.0 mm 0.00 in0.0 mm
10:18 AM 47.1°F8.4°C 29.8°F-1.2°C 51% 7.0 mph N11.3 kmh N 16.0 mph25.7 kmh 29.94 in1013.9 mb 0.00 in0.0 mm 0.00 in0.0 mm 0.00 in0.0 mm
10:25 AM 48.6°F9.2°C 29.8°F-1.2°C 48% 5.0 mph N8.0 kmh N 13.0 mph20.9 kmh 29.94 in1013.9 mb 0.00 in0.0 mm 0.00 in0.0 mm 0.00 in0.0 mm
10:32 AM 48.7°F9.3°C 29.5°F-1.4°C 47% 5.0 mph N8.0 kmh N 15.0 mph24.1 kmh 29.94 in1013.9 mb 0.00 in0.0 mm 0.00 in0.0 mm 0.00 in0.0 mm
10:39 AM 47.5°F8.6°C 27.7°F-2.4°C 46% 5.0 mph N8.0 kmh N 15.0 mph24.1 kmh 29.95 in1014.2 mb 0.00 in0.0 mm 0.00 in0.0 mm 0.00 in0.0 mm
10:46 AM 48.4°F9.1°C 28.9°F-1.7°C 47% 5.0 mph N8.0 kmh N 15.0 mph24.1 kmh 29.94 in1013.9 mb 0.00 in0.0 mm 0.00 in0.0 mm 0.00 in0.0 mm
10:53 AM 48.4°F9.1°C 28.0°F-2.2°C 45% 5.0 mph N8.0 kmh N 15.0 mph24.1 kmh 29.94 in1013.9 mb 0.00 in0.0 mm 0.00 in0.0 mm 0.00 in0.0 mm
11:00 AM 47.7°F8.7°C 27.9°F-2.3°C 46% 7.0 mph N11.3 kmh N 19.0 mph30.6 kmh 29.94 in1013.9 mb 0.00 in0.0 mm 0.00 in0.0 mm 0.00 in0.0 mm
11:07 AM 49.8°F9.9°C 28.2°F-2.1°C 43% 7.0 mph N11.3 kmh N 19.0 mph30.6 kmh 29.94 in1013.9 mb 0.00 in0.0 mm 0.00 in0.0 mm 0.00 in0.0 mm
11:14 AM 48.9°F9.4°C 27.0°F-2.8°C 42% 7.0 mph N11.3 kmh N 19.0 mph30.6 kmh 29.94 in1013.9 mb 0.00 in0.0 mm 0.00 in0.0 mm 0.00 in0.0 mm
11:21 AM 48.0°F8.9°C 27.7°F-2.4°C 45% 5.0 mph N8.0 kmh N 16.0 mph25.7 kmh 29.94 in1013.9 mb 0.00 in0.0 mm 0.00 in0.0 mm 0.00 in0.0 mm
11:28 AM 48.0°F8.9°C 27.7°F-2.4°C 45% 5.0 mph N8.0 kmh N 12.0 mph19.3 kmh 29.94 in1013.9 mb 0.00 in0.0 mm 0.00 in0.0 mm 0.00 in0.0 mm
11:35 AM 49.6°F9.8°C 28.0°F-2.2°C 43% 5.0 mph N8.0 kmh N 13.0 mph20.9 kmh 29.95 in1014.2 mb 0.00 in0.0 mm 0.00 in0.0 mm 0.00 in0.0 mm
11:42 AM 48.7°F9.3°C 28.4°F-2.0°C 45% 5.0 mph N8.0 kmh N 13.0 mph20.9 kmh 29.94 in1013.9 mb 0.00 in0.0 mm 0.00 in0.0 mm 0.00 in0.0 mm
11:49 AM 49.6°F9.8°C 28.0°F-2.2°C 43% 5.0 mph N8.0 kmh N 15.0 mph24.1 kmh 29.95 in1014.2 mb 0.00 in0.0 mm 0.00 in0.0 mm 0.00 in0.0 mm
11:56 AM 48.7°F9.3°C 26.8°F-2.9°C 42% 5.0 mph N8.0 kmh N 17.0 mph27.4 kmh 29.95 in1014.2 mb 0.00 in0.0 mm 0.00 in0.0 mm 0.00 in0.0 mm
12:03 PM 48.6°F9.2°C 26.4°F-3.1°C 42% 7.0 mph N11.3 kmh N 20.0 mph32.2 kmh 29.95 in1014.2 mb 0.00 in0.0 mm 0.00 in0.0 mm 0.00 in0.0 mm
12:10 PM 48.9°F9.4°C 26.2°F-3.2°C 41% 5.0 mph N8.0 kmh N 13.0 mph20.9 kmh 29.95 in1014.2 mb 0.00 in0.0 mm 0.00 in0.0 mm 0.00 in0.0 mm
12:17 PM 48.7°F9.3°C 27.7°F-2.4°C 44% 4.0 mph N6.4 kmh N 12.0 mph19.3 kmh 29.95 in1014.2 mb 0.00 in0.0 mm 0.00 in0.0 mm 0.00 in0.0 mm
12:24 PM 48.6°F9.2°C 27.0°F-2.8°C 43% 4.0 mph N6.4 kmh N 12.0 mph19.3 kmh 29.95 in1014.2 mb 0.00 in0.0 mm 0.00 in0.0 mm 0.00 in0.0 mm
12:31 PM 48.6°F9.2°C 27.5°F-2.5°C 44% 5.0 mph N8.0 kmh N 15.0 mph24.1 kmh 29.95 in1014.2 mb 0.00 in0.0 mm 0.00 in0.0 mm 0.00 in0.0 mm
12:38 PM 48.9°F9.4°C 27.3°F-2.6°C 43% 5.0 mph N8.0 kmh N 15.0 mph24.1 kmh 29.95 in1014.2 mb 0.00 in0.0 mm 0.00 in0.0 mm 0.00 in0.0 mm
12:45 PM 48.9°F9.4°C 26.8°F-2.9°C 42% 5.0 mph N8.0 kmh N 15.0 mph24.1 kmh 29.95 in1014.2 mb 0.00 in0.0 mm 0.00 in0.0 mm 0.00 in0.0 mm
12:52 PM 48.6°F9.2°C 27.1°F-2.7°C 43% 5.0 mph N8.0 kmh N 12.0 mph19.3 kmh 29.95 in1014.2 mb 0.00 in0.0 mm 0.00 in0.0 mm 0.00 in0.0 mm
12:59 PM 48.9°F9.4°C 27.5°F-2.5°C 43% 5.0 mph N8.0 kmh N 15.0 mph24.1 kmh 29.95 in1014.2 mb 0.00 in0.0 mm 0.00 in0.0 mm 0.00 in0.0 mm
01:06 PM 49.1°F9.5°C 27.0°F-2.8°C 42% 5.0 mph N8.0 kmh N 15.0 mph24.1 kmh 29.95 in1014.2 mb 0.00 in0.0 mm 0.00 in0.0 mm 0.00 in0.0 mm
01:13 PM 50.2°F10.1°C 27.3°F-2.6°C 41% 4.0 mph N6.4 kmh N 13.0 mph20.9 kmh 29.94 in1013.9 mb 0.00 in0.0 mm 0.00 in0.0 mm 0.00 in0.0 mm
01:20 PM 50.9°F10.5°C 27.3°F-2.6°C 40% 4.0 mph N6.4 kmh N 13.0 mph20.9 kmh 29.94 in1013.9 mb 0.00 in0.0 mm 0.00 in0.0 mm 0.00 in0.0 mm
01:27 PM 50.7°F10.4°C 26.1°F-3.3°C 38% 5.0 mph N8.0 kmh N 15.0 mph24.1 kmh 29.94 in1013.9 mb 0.00 in0.0 mm 0.00 in0.0 mm 0.00 in0.0 mm
01:34 PM 51.6°F10.9°C 27.5°F-2.5°C 39% 5.0 mph N8.0 kmh N 15.0 mph24.1 kmh 29.94 in1013.9 mb 0.00 in0.0 mm 0.00 in0.0 mm 0.00 in0.0 mm
01:41 PM 52.0°F11.1°C 26.4°F-3.1°C 37% 5.0 mph N8.0 kmh N 19.0 mph30.6 kmh 29.94 in1013.9 mb 0.00 in0.0 mm 0.00 in0.0 mm 0.00 in0.0 mm
01:48 PM 51.4°F10.8°C 26.8°F-2.9°C 38% 7.0 mph N11.3 kmh N 19.0 mph30.6 kmh 29.95 in1014.2 mb 0.00 in0.0 mm 0.00 in0.0 mm 0.00 in0.0 mm
01:55 PM 50.2°F10.1°C 27.3°F-2.6°C 41% 5.0 mph N8.0 kmh N 15.0 mph24.1 kmh 29.95 in1014.2 mb 0.00 in0.0 mm 0.00 in0.0 mm 0.00 in0.0 mm
02:02 PM 49.6°F9.8°C 27.5°F-2.5°C 42% 5.0 mph N8.0 kmh N 15.0 mph24.1 kmh 29.95 in1014.2 mb 0.00 in0.0 mm 0.00 in0.0 mm 0.00 in0.0 mm
02:09 PM 49.3°F9.6°C 27.1°F-2.7°C 42% 5.0 mph N8.0 kmh N 13.0 mph20.9 kmh 29.95 in1014.2 mb 0.00 in0.0 mm 0.00 in0.0 mm 0.00 in0.0 mm
02:23 PM 49.5°F9.7°C 27.3°F-2.6°C 42% 5.0 mph N8.0 kmh N 11.0 mph17.7 kmh 29.95 in1014.2 mb 0.00 in0.0 mm 0.00 in0.0 mm 0.00 in0.0 mm
02:30 PM 49.5°F9.7°C 27.3°F-2.6°C 42% 4.0 mph N6.4 kmh N 12.0 mph19.3 kmh 29.95 in1014.2 mb 0.00 in0.0 mm 0.00 in0.0 mm 0.00 in0.0 mm
02:37 PM 49.6°F9.8°C 27.5°F-2.5°C 42% 4.0 mph N6.4 kmh N 9.0 mph14.5 kmh 29.95 in1014.2 mb 0.00 in0.0 mm 0.00 in0.0 mm 0.00 in0.0 mm
02:44 PM 49.5°F9.7°C 27.3°F-2.6°C 42% 4.0 mph N6.4 kmh N 8.0 mph12.9 kmh 29.96 in1014.6 mb 0.00 in0.0 mm 0.00 in0.0 mm 0.00 in0.0 mm
02:51 PM 49.5°F9.7°C 27.9°F-2.3°C 43% 3.0 mph N4.8 kmh N 7.0 mph11.3 kmh 29.96 in1014.6 mb 0.00 in0.0 mm 0.00 in0.0 mm 0.00 in0.0 mm
02:58 PM 49.5°F9.7°C 27.3°F-2.6°C 42% 3.0 mph N4.8 kmh N 7.0 mph11.3 kmh 29.96 in1014.6 mb 0.00 in0.0 mm 0.00 in0.0 mm 0.00 in0.0 mm
03:05 PM 50.2°F10.1°C 27.3°F-2.6°C 41% 4.0 mph N6.4 kmh N 9.0 mph14.5 kmh 29.96 in1014.6 mb 0.00 in0.0 mm 0.00 in0.0 mm 0.00 in0.0 mm
03:12 PM 50.2°F10.1°C 27.3°F-2.6°C 41% 3.0 mph N4.8 kmh N 8.0 mph12.9 kmh 29.96 in1014.6 mb 0.00 in0.0 mm 0.00 in0.0 mm 0.00 in0.0 mm
03:19 PM 51.1°F10.6°C 28.0°F-2.2°C 41% 3.0 mph N4.8 kmh N 7.0 mph11.3 kmh 29.96 in1014.6 mb 0.00 in0.0 mm 0.00 in0.0 mm 0.00 in0.0 mm
03:26 PM 50.7°F10.4°C 26.8°F-2.9°C 39% 3.0 mph N4.8 kmh N 11.0 mph17.7 kmh 29.96 in1014.6 mb 0.00 in0.0 mm 0.00 in0.0 mm 0.00 in0.0 mm
03:33 PM 51.4°F10.8°C 27.3°F-2.6°C 39% 4.0 mph N6.4 kmh N 12.0 mph19.3 kmh 29.96 in1014.6 mb 0.00 in0.0 mm 0.00 in0.0 mm 0.00 in0.0 mm
03:40 PM 51.3°F10.7°C 27.1°F-2.7°C 39% 4.0 mph N6.4 kmh N 12.0 mph19.3 kmh 29.97 in1014.9 mb 0.00 in0.0 mm 0.00 in0.0 mm 0.00 in0.0 mm
03:47 PM 51.1°F10.6°C 27.0°F-2.8°C 39% 5.0 mph N8.0 kmh N 15.0 mph24.1 kmh 29.97 in1014.9 mb 0.00 in0.0 mm 0.00 in0.0 mm 0.00 in0.0 mm
03:54 PM 50.4°F10.2°C 27.0°F-2.8°C 40% 4.0 mph N6.4 kmh N 15.0 mph24.1 kmh 29.97 in1014.9 mb 0.00 in0.0 mm 0.00 in0.0 mm 0.00 in0.0 mm
04:01 PM 49.8°F9.9°C 27.7°F-2.4°C 42% 3.0 mph N4.8 kmh N 9.0 mph14.5 kmh 29.97 in1014.9 mb 0.00 in0.0 mm 0.00 in0.0 mm 0.00 in0.0 mm
04:08 PM 50.2°F10.1°C 26.8°F-2.9°C 40% 3.0 mph N4.8 kmh N 8.0 mph12.9 kmh 29.97 in1014.9 mb 0.00 in0.0 mm 0.00 in0.0 mm 0.00 in0.0 mm
04:15 PM 50.4°F10.2°C 27.5°F-2.5°C 41% 3.0 mph N4.8 kmh N 8.0 mph12.9 kmh 29.97 in1014.9 mb 0.00 in0.0 mm 0.00 in0.0 mm 0.00 in0.0 mm
04:22 PM 50.9°F10.5°C 26.8°F-2.9°C 39% 5.0 mph N8.0 kmh N 16.0 mph25.7 kmh 29.98 in1015.2 mb 0.00 in0.0 mm 0.00 in0.0 mm 0.00 in0.0 mm
04:29 PM 49.8°F9.9°C 26.4°F-3.1°C 40% 5.0 mph N8.0 kmh N 16.0 mph25.7 kmh 29.98 in1015.2 mb 0.00 in0.0 mm 0.00 in0.0 mm 0.00 in0.0 mm
04:36 PM 49.5°F9.7°C 27.3°F-2.6°C 42% 4.0 mph N6.4 kmh N 9.0 mph14.5 kmh 29.98 in1015.2 mb 0.00 in0.0 mm 0.00 in0.0 mm 0.00 in0.0 mm
04:43 PM 49.3°F9.6°C 27.1°F-2.7°C 42% 4.0 mph N6.4 kmh N 13.0 mph20.9 kmh 29.98 in1015.2 mb 0.00 in0.0 mm 0.00 in0.0 mm 0.00 in0.0 mm
04:50 PM 49.1°F9.5°C 28.0°F-2.2°C 44% 3.0 mph N4.8 kmh N 8.0 mph12.9 kmh 29.98 in1015.2 mb 0.00 in0.0 mm 0.00 in0.0 mm 0.00 in0.0 mm
04:57 PM 48.7°F9.3°C 27.9°F-2.3°C 44% 1.0 mph N1.6 kmh N 4.0 mph6.4 kmh 29.98 in1015.2 mb 0.00 in0.0 mm 0.00 in0.0 mm 0.00 in0.0 mm
05:04 PM 48.6°F9.2°C 28.2°F-2.1°C 45% 1.0 mph N1.6 kmh N 5.0 mph8.0 kmh 29.99 in1015.6 mb 0.00 in0.0 mm 0.00 in0.0 mm 0.00 in0.0 mm
05:11 PM 48.4°F9.1°C 28.6°F-1.9°C 46% 1.0 mph N1.6 kmh N 5.0 mph8.0 kmh 29.99 in1015.6 mb 0.00 in0.0 mm 0.00 in0.0 mm 0.00 in0.0 mm
05:18 PM 48.0°F8.9°C 28.8°F-1.8°C 47% 1.0 mph N1.6 kmh N 3.0 mph4.8 kmh 29.99 in1015.6 mb 0.00 in0.0 mm 0.00 in0.0 mm 0.00 in0.0 mm
05:25 PM 48.0°F8.9°C 28.8°F-1.8°C 47% 1.0 mph N1.6 kmh N 4.0 mph6.4 kmh 29.99 in1015.6 mb 0.00 in0.0 mm 0.00 in0.0 mm 0.00 in0.0 mm
05:32 PM 47.7°F8.7°C 28.9°F-1.7°C 48% 1.0 mph N1.6 kmh N 4.0 mph6.4 kmh 29.99 in1015.6 mb 0.00 in0.0 mm 0.00 in0.0 mm 0.00 in0.0 mm
05:39 PM 47.7°F8.7°C 28.9°F-1.7°C 48% 1.0 mph N1.6 kmh N 4.0 mph6.4 kmh 29.99 in1015.6 mb 0.00 in0.0 mm 0.00 in0.0 mm 0.00 in0.0 mm
05:46 PM 47.7°F8.7°C 29.5°F-1.4°C 49% 1.0 mph N1.6 kmh N 9.0 mph14.5 kmh 29.99 in1015.6 mb 0.00 in0.0 mm 0.00 in0.0 mm 0.00 in0.0 mm
05:53 PM 47.5°F8.6°C 28.8°F-1.8°C 48% 1.0 mph N1.6 kmh N 9.0 mph14.5 kmh 30.00 in1015.9 mb 0.00 in0.0 mm 0.00 in0.0 mm 0.00 in0.0 mm
06:00 PM 47.5°F8.6°C 29.7°F-1.3°C 50% 1.0 mph N1.6 kmh N 4.0 mph6.4 kmh 30.00 in1015.9 mb 0.00 in0.0 mm 0.00 in0.0 mm 0.00 in0.0 mm
06:07 PM 47.1°F8.4°C 29.5°F-1.4°C 50% Calm Calm 4.0 mph6.4 kmh 30.00 in1015.9 mb 0.00 in0.0 mm 0.00 in0.0 mm 0.00 in0.0 mm
06:14 PM 46.9°F8.3°C 29.3°F-1.5°C 50% 1.0 mph N1.6 kmh N 4.0 mph6.4 kmh 30.00 in1015.9 mb 0.00 in0.0 mm 0.00 in0.0 mm 0.00 in0.0 mm
06:21 PM 46.8°F8.2°C 29.7°F-1.3°C 51% 1.0 mph N1.6 kmh N 3.0 mph4.8 kmh 30.00 in1015.9 mb 0.00 in0.0 mm 0.00 in0.0 mm 0.00 in0.0 mm
06:28 PM 46.8°F8.2°C 29.7°F-1.3°C 51% 1.0 mph N1.6 kmh N 4.0 mph6.4 kmh 30.00 in1015.9 mb 0.00 in0.0 mm 0.00 in0.0 mm 0.00 in0.0 mm
06:35 PM 46.8°F8.2°C 29.5°F-1.4°C 51% 1.0 mph N1.6 kmh N 4.0 mph6.4 kmh 30.00 in1015.9 mb 0.00 in0.0 mm 0.00 in0.0 mm 0.00 in0.0 mm
06:42 PM 46.6°F8.1°C 29.8°F-1.2°C 52% 1.0 mph N1.6 kmh N 5.0 mph8.0 kmh 30.01 in1016.3 mb 0.00 in0.0 mm 0.00 in0.0 mm 0.00 in0.0 mm
06:49 PM 46.2°F7.9°C 29.7°F-1.3°C 52% Calm Calm 3.0 mph4.8 kmh 30.01 in1016.3 mb 0.00 in0.0 mm 0.00 in0.0 mm 0.00 in0.0 mm
06:56 PM 46.2°F7.9°C 29.5°F-1.4°C 52% 1.0 mph N1.6 kmh N 5.0 mph8.0 kmh 30.02 in1016.6 mb 0.00 in0.0 mm 0.00 in0.0 mm 0.00 in0.0 mm
07:03 PM 46.0°F7.8°C 29.8°F-1.2°C 53% 1.0 mph N1.6 kmh N 5.0 mph8.0 kmh 30.02 in1016.6 mb 0.00 in0.0 mm 0.00 in0.0 mm 0.00 in0.0 mm
07:10 PM 45.9°F7.7°C 29.7°F-1.3°C 53% 1.0 mph N1.6 kmh N 4.0 mph6.4 kmh 30.02 in1016.6 mb 0.00 in0.0 mm 0.00 in0.0 mm 0.00 in0.0 mm
07:17 PM 45.7°F7.6°C 29.8°F-1.2°C 54% Calm Calm 4.0 mph6.4 kmh 30.02 in1016.6 mb 0.00 in0.0 mm 0.00 in0.0 mm 0.00 in0.0 mm
07:24 PM 45.3°F7.4°C 29.7°F-1.3°C 54% Calm Calm 3.0 mph4.8 kmh 30.02 in1016.6 mb 0.00 in0.0 mm 0.00 in0.0 mm 0.00 in0.0 mm
07:31 PM 45.1°F7.3°C 29.5°F-1.4°C 54% Calm Calm 1.0 mph1.6 kmh 30.02 in1016.6 mb 0.00 in0.0 mm 0.00 in0.0 mm 0.00 in0.0 mm
07:38 PM 45.0°F7.2°C 29.8°F-1.2°C 55% Calm Calm 1.0 mph1.6 kmh 30.02 in1016.6 mb 0.00 in0.0 mm 0.00 in0.0 mm 0.00 in0.0 mm
07:45 PM 45.0°F7.2°C 29.7°F-1.3°C 55% Calm Calm 1.0 mph1.6 kmh 30.02 in1016.6 mb 0.00 in0.0 mm 0.00 in0.0 mm 0.00 in0.0 mm
07:52 PM 45.0°F7.2°C 30.2°F-1.0°C 56% Calm Calm 3.0 mph4.8 kmh 30.02 in1016.6 mb 0.00 in0.0 mm 0.00 in0.0 mm 0.00 in0.0 mm
07:59 PM 45.0°F7.2°C 30.2°F-1.0°C 56% Calm Calm 3.0 mph4.8 kmh 30.02 in1016.6 mb 0.00 in0.0 mm 0.00 in0.0 mm 0.00 in0.0 mm
08:06 PM 44.6°F7.0°C 29.8°F-1.2°C 56% Calm Calm 1.0 mph1.6 kmh 30.03 in1016.9 mb 0.00 in0.0 mm 0.00 in0.0 mm 0.00 in0.0 mm
08:13 PM 44.6°F7.0°C 29.8°F-1.2°C 56% Calm Calm 3.0 mph4.8 kmh 30.03 in1016.9 mb 0.00 in0.0 mm 0.00 in0.0 mm 0.00 in0.0 mm
08:20 PM 44.6°F7.0°C 30.4°F-0.9°C 57% Calm Calm 3.0 mph4.8 kmh 30.03 in1016.9 mb 0.00 in0.0 mm 0.00 in0.0 mm 0.00 in0.0 mm
08:27 PM 44.6°F7.0°C 30.4°F-0.9°C 57% Calm Calm 3.0 mph4.8 kmh 30.03 in1016.9 mb 0.00 in0.0 mm 0.00 in0.0 mm 0.00 in0.0 mm
08:34 PM 44.4°F6.9°C 30.2°F-1.0°C 57% Calm Calm 1.0 mph1.6 kmh 30.04 in1017.3 mb 0.00 in0.0 mm 0.00 in0.0 mm 0.00 in0.0 mm
08:41 PM 44.4°F6.9°C 30.2°F-1.0°C 57% Calm Calm 3.0 mph4.8 kmh 30.04 in1017.3 mb 0.00 in0.0 mm 0.00 in0.0 mm 0.00 in0.0 mm
08:48 PM 44.4°F6.9°C 30.6°F-0.8°C 58% Calm Calm 4.0 mph6.4 kmh 30.04 in1017.3 mb 0.00 in0.0 mm 0.00 in0.0 mm 0.00 in0.0 mm
08:55 PM 44.4°F6.9°C 30.2°F-1.0°C 57% 1.0 mph N1.6 kmh N 4.0 mph6.4 kmh 30.04 in1017.3 mb 0.00 in0.0 mm 0.00 in0.0 mm 0.00 in0.0 mm
09:02 PM 44.2°F6.8°C 29.8°F-1.2°C 57% 1.0 mph N1.6 kmh N 4.0 mph6.4 kmh 30.04 in1017.3 mb 0.00 in0.0 mm 0.00 in0.0 mm 0.00 in0.0 mm
09:09 PM 44.1°F6.7°C 30.2°F-1.0°C 58% 1.0 mph N1.6 kmh N 4.0 mph6.4 kmh 30.04 in1017.3 mb 0.00 in0.0 mm 0.00 in0.0 mm 0.00 in0.0 mm
09:16 PM 43.9°F6.6°C 30.0°F-1.1°C 58% Calm Calm 3.0 mph4.8 kmh 30.05 in1017.6 mb 0.00 in0.0 mm 0.00 in0.0 mm 0.00 in0.0 mm
09:23 PM 43.3°F6.3°C 30.0°F-1.1°C 59% Calm Calm 1.0 mph1.6 kmh 30.04 in1017.3 mb 0.00 in0.0 mm 0.00 in0.0 mm 0.00 in0.0 mm
09:30 PM 42.6°F5.9°C 29.8°F-1.2°C 60% Calm Calm 1.0 mph1.6 kmh 30.05 in1017.6 mb 0.00 in0.0 mm 0.00 in0.0 mm 0.00 in0.0 mm
09:37 PM 41.9°F5.5°C 29.5°F-1.4°C 61% Calm Calm 1.0 mph1.6 kmh 30.05 in1017.6 mb 0.00 in0.0 mm 0.00 in0.0 mm 0.00 in0.0 mm
09:44 PM 41.4°F5.2°C 29.3°F-1.5°C 62% Calm Calm 1.0 mph1.6 kmh 30.05 in1017.6 mb 0.00 in0.0 mm 0.00 in0.0 mm 0.00 in0.0 mm
09:51 PM 40.5°F4.7°C 28.9°F-1.7°C 63% Calm Calm -- 30.04 in1017.3 mb 0.00 in0.0 mm 0.00 in0.0 mm 0.00 in0.0 mm
09:58 PM 39.7°F4.3°C 28.9°F-1.7°C 65% Calm Calm -- 30.04 in1017.3 mb 0.00 in0.0 mm 0.00 in0.0 mm 0.00 in0.0 mm
10:05 PM 39.2°F4.0°C 28.8°F-1.8°C 66% Calm Calm -- 30.05 in1017.6 mb 0.00 in0.0 mm 0.00 in0.0 mm 0.00 in0.0 mm
10:12 PM 38.7°F3.7°C 28.8°F-1.8°C 67% Calm Calm -- 30.04 in1017.3 mb 0.00 in0.0 mm 0.00 in0.0 mm 0.00 in0.0 mm
10:19 PM 38.5°F3.6°C 28.9°F-1.7°C 68% Calm Calm -- 30.05 in1017.6 mb 0.00 in0.0 mm 0.00 in0.0 mm 0.00 in0.0 mm
10:26 PM 37.9°F3.3°C 28.4°F-2.0°C 68% Calm Calm -- 30.05 in1017.6 mb 0.00 in0.0 mm 0.00 in0.0 mm 0.00 in0.0 mm
10:33 PM 37.8°F3.2°C 28.0°F-2.2°C 68% Calm Calm -- 30.05 in1017.6 mb 0.00 in0.0 mm 0.00 in0.0 mm 0.00 in0.0 mm
10:40 PM 37.4°F3.0°C 27.9°F-2.3°C 68% Calm Calm -- 30.05 in1017.6 mb 0.00 in0.0 mm 0.00 in0.0 mm 0.00 in0.0 mm
10:47 PM 37.0°F2.8°C 27.5°F-2.5°C 68% Calm Calm -- 30.05 in1017.6 mb 0.00 in0.0 mm 0.00 in0.0 mm 0.00 in0.0 mm
10:54 PM 36.9°F2.7°C 27.1°F-2.7°C 68% Calm Calm -- 30.05 in1017.6 mb 0.00 in0.0 mm 0.00 in0.0 mm 0.00 in0.0 mm
11:01 PM 36.9°F2.7°C 27.3°F-2.6°C 68% Calm Calm -- 30.05 in1017.6 mb 0.00 in0.0 mm 0.00 in0.0 mm 0.00 in0.0 mm
11:08 PM 36.3°F2.4°C 26.8°F-2.9°C 68% Calm Calm -- 30.05 in1017.6 mb 0.00 in0.0 mm 0.00 in0.0 mm 0.00 in0.0 mm
11:15 PM 36.1°F2.3°C 27.0°F-2.8°C 69% Calm Calm -- 30.06 in1017.9 mb 0.00 in0.0 mm 0.00 in0.0 mm 0.00 in0.0 mm
11:22 PM 36.0°F2.2°C 26.4°F-3.1°C 68% Calm Calm -- 30.05 in1017.6 mb 0.00 in0.0 mm 0.00 in0.0 mm 0.00 in0.0 mm
11:29 PM 35.4°F1.9°C 26.4°F-3.1°C 69% Calm Calm -- 30.05 in1017.6 mb 0.00 in0.0 mm 0.00 in0.0 mm 0.00 in0.0 mm
11:36 PM 35.1°F1.7°C 25.9°F-3.4°C 69% Calm Calm -- 30.06 in1017.9 mb 0.00 in0.0 mm 0.00 in0.0 mm 0.00 in0.0 mm
11:43 PM 35.2°F1.8°C 26.4°F-3.1°C 70% Calm Calm -- 30.05 in1017.6 mb 0.00 in0.0 mm 0.00 in0.0 mm 0.00 in0.0 mm
11:50 PM 34.9°F1.6°C 26.1°F-3.3°C 70% Calm Calm -- 30.05 in1017.6 mb 0.00 in0.0 mm 0.00 in0.0 mm 0.00 in0.0 mm
11:57 PM 34.5°F1.4°C 25.7°F-3.5°C 70% Calm Calm -- 30.06 in1017.9 mb 0.00 in0.0 mm 0.00 in0.0 mm 0.00 in0.0 mm